sensor_id;sensor_type;location;lat;lon;timestamp;temperature;humidity
6439;DHT22;3252;52.540;13.290;2023-09-19T08:49:01;19.40;99.90
6439;DHT22;3252;52.540;13.290;2023-09-19T10:13:50;22.10;90.40
6439;DHT22;3252;52.540;13.290;2023-09-19T10:15:55;23.20;81.10
6439;DHT22;3252;52.540;13.290;2023-09-19T10:18:00;22.70;78.10
6439;DHT22;3252;52.540;13.290;2023-09-19T10:20:04;22.90;77.50
6439;DHT22;3252;52.540;13.290;2023-09-19T10:22:12;23.20;73.50
6439;DHT22;3252;52.540;13.290;2023-09-19T10:24:16;23.70;66.30
6439;DHT22;3252;52.540;13.290;2023-09-19T10:26:19;23.80;66.00
6439;DHT22;3252;52.540;13.290;2023-09-19T10:28:21;23.50;65.20
6439;DHT22;3252;52.540;13.290;2023-09-19T10:30:25;23.60;65.90
6439;DHT22;3252;52.540;13.290;2023-09-19T10:32:30;23.70;64.20
6439;DHT22;3252;52.540;13.290;2023-09-19T10:34:35;24.00;63.60
6439;DHT22;3252;52.540;13.290;2023-09-19T10:36:38;23.50;62.80
6439;DHT22;3252;52.540;13.290;2023-09-19T10:38:43;23.10;62.90
6439;DHT22;3252;52.540;13.290;2023-09-19T10:40:54;22.60;63.00
6439;DHT22;3252;52.540;13.290;2023-09-19T10:46:18;23.10;61.40
6439;DHT22;3252;52.540;13.290;2023-09-19T10:48:21;22.80;63.10
6439;DHT22;3252;52.540;13.290;2023-09-19T10:50:28;22.70;62.30
6439;DHT22;3252;52.540;13.290;2023-09-19T10:52:34;22.50;62.70
6439;DHT22;3252;52.540;13.290;2023-09-19T10:54:46;22.60;63.40
6439;DHT22;3252;52.540;13.290;2023-09-19T10:56:53;22.70;63.40
6439;DHT22;3252;52.540;13.290;2023-09-19T10:59:09;23.10;63.70
6439;DHT22;3252;52.540;13.290;2023-09-19T11:01:13;22.90;62.50
6439;DHT22;3252;52.540;13.290;2023-09-19T11:03:21;22.70;63.30
6439;DHT22;3252;52.540;13.290;2023-09-19T11:05:31;22.70;64.80
6439;DHT22;3252;52.540;13.290;2023-09-19T11:07:57;23.00;62.00
6439;DHT22;3252;52.540;13.290;2023-09-19T11:10:00;23.20;62.70
6439;DHT22;3252;52.540;13.290;2023-09-19T11:12:05;23.30;61.00
6439;DHT22;3252;52.540;13.290;2023-09-19T11:14:30;23.10;61.60
6439;DHT22;3252;52.540;13.290;2023-09-19T11:16:32;22.80;61.30
6439;DHT22;3252;52.540;13.290;2023-09-19T11:18:55;22.70;62.00
6439;DHT22;3252;52.540;13.290;2023-09-19T11:23:34;22.60;61.20
6439;DHT22;3252;52.540;13.290;2023-09-19T11:25:47;22.70;63.50
6439;DHT22;3252;52.540;13.290;2023-09-19T11:30:29;23.30;60.60
6439;DHT22;3252;52.540;13.290;2023-09-19T11:35:10;23.20;60.70
6439;DHT22;3252;52.540;13.290;2023-09-19T11:40:11;22.90;60.40
6439;DHT22;3252;52.540;13.290;2023-09-19T11:42:43;22.70;59.90
6439;DHT22;3252;52.540;13.290;2023-09-19T11:44:49;22.50;59.10
6439;DHT22;3252;52.540;13.290;2023-09-19T11:46:55;22.40;58.70
6439;DHT22;3252;52.540;13.290;2023-09-19T11:49:45;22.30;59.10
6439;DHT22;3252;52.540;13.290;2023-09-19T11:51:51;22.30;59.70
6439;DHT22;3252;52.540;13.290;2023-09-19T11:54:20;22.30;60.00
6439;DHT22;3252;52.540;13.290;2023-09-19T11:56:39;22.50;60.00
6439;DHT22;3252;52.540;13.290;2023-09-19T11:58:42;22.90;60.50
6439;DHT22;3252;52.540;13.290;2023-09-19T12:00:45;22.70;59.10
6439;DHT22;3252;52.540;13.290;2023-09-19T12:02:52;22.40;60.30
6439;DHT22;3252;52.540;13.290;2023-09-19T12:06:13;22.30;59.70
6439;DHT22;3252;52.540;13.290;2023-09-19T12:08:20;21.90;59.70
6439;DHT22;3252;52.540;13.290;2023-09-19T12:10:47;21.90;59.80
6439;DHT22;3252;52.540;13.290;2023-09-19T12:12:53;21.80;59.70
6439;DHT22;3252;52.540;13.290;2023-09-19T12:14:58;21.70;59.80
6439;DHT22;3252;52.540;13.290;2023-09-19T12:17:04;21.50;60.40
6439;DHT22;3252;52.540;13.290;2023-09-19T12:19:18;21.30;59.80
6439;DHT22;3252;52.540;13.290;2023-09-19T12:21:29;21.40;61.60
6439;DHT22;3252;52.540;13.290;2023-09-19T12:23:38;21.40;62.20
6439;DHT22;3252;52.540;13.290;2023-09-19T12:25:47;21.40;61.80
6439;DHT22;3252;52.540;13.290;2023-09-19T12:27:59;21.30;61.40
6439;DHT22;3252;52.540;13.290;2023-09-19T12:30:05;21.20;62.30
6439;DHT22;3252;52.540;13.290;2023-09-19T12:32:10;21.20;62.30
6439;DHT22;3252;52.540;13.290;2023-09-19T12:34:16;21.20;62.10
6439;DHT22;3252;52.540;13.290;2023-09-19T12:36:21;21.20;62.70
6439;DHT22;3252;52.540;13.290;2023-09-19T12:38:33;21.20;61.50
6439;DHT22;3252;52.540;13.290;2023-09-19T12:40:45;21.20;60.40
6439;DHT22;3252;52.540;13.290;2023-09-19T12:42:53;21.20;61.50
6439;DHT22;3252;52.540;13.290;2023-09-19T12:44:58;21.20;61.50
6439;DHT22;3252;52.540;13.290;2023-09-19T12:47:09;21.20;62.00
6439;DHT22;3252;52.540;13.290;2023-09-19T12:49:16;21.20;62.30
6439;DHT22;3252;52.540;13.290;2023-09-19T12:51:19;21.30;62.40
6439;DHT22;3252;52.540;13.290;2023-09-19T12:53:26;21.20;61.80
6439;DHT22;3252;52.540;13.290;2023-09-19T12:55:35;21.30;62.30
6439;DHT22;3252;52.540;13.290;2023-09-19T12:57:41;21.30;62.10
6439;DHT22;3252;52.540;13.290;2023-09-19T12:59:45;21.20;62.20
6439;DHT22;3252;52.540;13.290;2023-09-19T13:02:06;21.20;62.70
6439;DHT22;3252;52.540;13.290;2023-09-19T13:04:18;21.20;62.10
6439;DHT22;3252;52.540;13.290;2023-09-19T13:06:37;21.10;62.80
6439;DHT22;3252;52.540;13.290;2023-09-19T13:08:43;21.10;62.80
6439;DHT22;3252;52.540;13.290;2023-09-19T13:11:04;21.10;63.80
6439;DHT22;3252;52.540;13.290;2023-09-19T13:13:24;21.10;63.60
6439;DHT22;3252;52.540;13.290;2023-09-19T13:15:51;21.10;63.40
6439;DHT22;3252;52.540;13.290;2023-09-19T13:18:11;21.10;63.80
6439;DHT22;3252;52.540;13.290;2023-09-19T13:20:27;21.20;64.10
6439;DHT22;3252;52.540;13.290;2023-09-19T13:22:43;21.20;64.00
6439;DHT22;3252;52.540;13.290;2023-09-19T13:25:20;21.20;63.50
6439;DHT22;3252;52.540;13.290;2023-09-19T13:27:23;21.10;62.60
6439;DHT22;3252;52.540;13.290;2023-09-19T13:29:31;20.90;62.00
6439;DHT22;3252;52.540;13.290;2023-09-19T13:31:33;20.90;63.40
6439;DHT22;3252;52.540;13.290;2023-09-19T13:33:35;20.90;63.80
6439;DHT22;3252;52.540;13.290;2023-09-19T13:35:38;20.80;63.10
6439;DHT22;3252;52.540;13.290;2023-09-19T13:37:41;20.70;63.80
6439;DHT22;3252;52.540;13.290;2023-09-19T13:39:47;20.70;64.70
6439;DHT22;3252;52.540;13.290;2023-09-19T13:41:49;20.70;64.20
6439;DHT22;3252;52.540;13.290;2023-09-19T13:43:56;20.70;65.30
6439;DHT22;3252;52.540;13.290;2023-09-19T13:46:00;20.60;65.10
6439;DHT22;3252;52.540;13.290;2023-09-19T13:48:13;20.60;65.10
6439;DHT22;3252;52.540;13.290;2023-09-19T13:50:17;20.60;65.10
6439;DHT22;3252;52.540;13.290;2023-09-19T13:52:24;20.70;65.80
6439;DHT22;3252;52.540;13.290;2023-09-19T13:54:29;20.70;66.70
6439;DHT22;3252;52.540;13.290;2023-09-19T13:56:31;20.70;66.10
6439;DHT22;3252;52.540;13.290;2023-09-19T13:58:34;20.70;65.80
6439;DHT22;3252;52.540;13.290;2023-09-19T14:00:53;20.70;66.10
6439;DHT22;3252;52.540;13.290;2023-09-19T14:03:21;20.70;66.60
6439;DHT22;3252;52.540;13.290;2023-09-19T14:05:40;20.80;67.60
6439;DHT22;3252;52.540;13.290;2023-09-19T14:07:48;20.80;67.30
6439;DHT22;3252;52.540;13.290;2023-09-19T14:09:52;20.80;65.60
6439;DHT22;3252;52.540;13.290;2023-09-19T14:11:56;20.80;65.70
6439;DHT22;3252;52.540;13.290;2023-09-19T14:14:02;20.80;65.70
6439;DHT22;3252;52.540;13.290;2023-09-19T14:16:06;20.80;66.30
6439;DHT22;3252;52.540;13.290;2023-09-19T14:18:09;20.90;66.20
6439;DHT22;3252;52.540;13.290;2023-09-19T14:20:13;20.80;66.10
6439;DHT22;3252;52.540;13.290;2023-09-19T14:22:16;20.90;67.20
6439;DHT22;3252;52.540;13.290;2023-09-19T14:24:18;20.90;66.90
6439;DHT22;3252;52.540;13.290;2023-09-19T14:26:21;20.80;67.00
6439;DHT22;3252;52.540;13.290;2023-09-19T14:28:24;20.90;67.20
6439;DHT22;3252;52.540;13.290;2023-09-19T14:30:27;20.90;68.00
6439;DHT22;3252;52.540;13.290;2023-09-19T14:32:29;20.90;68.50
6439;DHT22;3252;52.540;13.290;2023-09-19T14:34:31;20.90;70.00
6439;DHT22;3252;52.540;13.290;2023-09-19T14:36:35;20.90;68.00
6439;DHT22;3252;52.540;13.290;2023-09-19T14:38:37;20.90;68.00
6439;DHT22;3252;52.540;13.290;2023-09-19T14:40:39;20.90;68.10
6439;DHT22;3252;52.540;13.290;2023-09-19T14:42:43;20.90;68.70
6439;DHT22;3252;52.540;13.290;2023-09-19T14:44:46;20.80;69.40
6439;DHT22;3252;52.540;13.290;2023-09-19T14:46:51;20.80;70.50
6439;DHT22;3252;52.540;13.290;2023-09-19T14:48:53;20.90;69.10
6439;DHT22;3252;52.540;13.290;2023-09-19T14:51:03;20.80;69.10
6439;DHT22;3252;52.540;13.290;2023-09-19T14:53:09;20.70;68.40
6439;DHT22;3252;52.540;13.290;2023-09-19T14:55:21;20.70;68.50
6439;DHT22;3252;52.540;13.290;2023-09-19T14:57:37;20.70;68.70
6439;DHT22;3252;52.540;13.290;2023-09-19T15:04:53;20.70;70.10
6439;DHT22;3252;52.540;13.290;2023-09-19T15:06:56;20.60;70.50
6439;DHT22;3252;52.540;13.290;2023-09-19T15:11:25;20.60;69.70
6439;DHT22;3252;52.540;13.290;2023-09-19T15:13:35;20.50;69.80
6439;DHT22;3252;52.540;13.290;2023-09-19T15:15:47;20.50;69.40
6439;DHT22;3252;52.540;13.290;2023-09-19T15:20:11;20.50;70.00
6439;DHT22;3252;52.540;13.290;2023-09-19T15:27:18;20.50;70.10
6439;DHT22;3252;52.540;13.290;2023-09-19T15:29:42;20.50;71.50
6439;DHT22;3252;52.540;13.290;2023-09-19T15:31:45;20.60;72.00
6439;DHT22;3252;52.540;13.290;2023-09-19T15:57:17;20.60;72.20
6439;DHT22;3252;52.540;13.290;2023-09-19T16:37:40;20.20;72.40
6439;DHT22;3252;52.540;13.290;2023-09-19T16:47:05;20.10;75.90
6439;DHT22;3252;52.540;13.290;2023-09-19T16:49:08;20.10;75.90
6439;DHT22;3252;52.540;13.290;2023-09-19T16:51:11;20.00;74.90
6439;DHT22;3252;52.540;13.290;2023-09-19T16:53:16;19.90;75.10
6439;DHT22;3252;52.540;13.290;2023-09-19T16:55:19;19.90;74.70
6439;DHT22;3252;52.540;13.290;2023-09-19T16:57:22;19.90;75.30
6439;DHT22;3252;52.540;13.290;2023-09-19T16:59:25;19.80;75.10
6439;DHT22;3252;52.540;13.290;2023-09-19T17:01:30;19.80;75.30
6439;DHT22;3252;52.540;13.290;2023-09-19T17:04:00;19.70;76.30
6439;DHT22;3252;52.540;13.290;2023-09-19T17:06:04;19.70;76.60
6439;DHT22;3252;52.540;13.290;2023-09-19T17:08:07;19.70;77.00
6439;DHT22;3252;52.540;13.290;2023-09-19T17:10:11;19.70;78.50
6439;DHT22;3252;52.540;13.290;2023-09-19T17:12:15;19.70;77.40
6439;DHT22;3252;52.540;13.290;2023-09-19T17:14:18;19.60;77.10
6439;DHT22;3252;52.540;13.290;2023-09-19T17:16:20;19.70;77.20
6439;DHT22;3252;52.540;13.290;2023-09-19T17:18:22;19.60;77.70
6439;DHT22;3252;52.540;13.290;2023-09-19T17:20:24;19.60;77.40
6439;DHT22;3252;52.540;13.290;2023-09-19T17:22:26;19.60;77.00
6439;DHT22;3252;52.540;13.290;2023-09-19T17:24:29;19.50;76.80
6439;DHT22;3252;52.540;13.290;2023-09-19T17:26:33;19.50;76.90
6439;DHT22;3252;52.540;13.290;2023-09-19T17:28:37;19.50;77.00
6439;DHT22;3252;52.540;13.290;2023-09-19T17:30:38;19.50;77.80
6439;DHT22;3252;52.540;13.290;2023-09-19T17:32:46;19.50;77.80
6439;DHT22;3252;52.540;13.290;2023-09-19T17:34:48;19.40;77.70
6439;DHT22;3252;52.540;13.290;2023-09-19T17:36:51;19.40;77.90
6439;DHT22;3252;52.540;13.290;2023-09-19T17:38:54;19.40;78.50
6439;DHT22;3252;52.540;13.290;2023-09-19T17:41:00;19.40;79.20
6439;DHT22;3252;52.540;13.290;2023-09-19T17:43:05;19.30;79.20
6439;DHT22;3252;52.540;13.290;2023-09-19T17:45:09;19.30;79.20
6439;DHT22;3252;52.540;13.290;2023-09-19T17:47:12;19.30;80.20
6439;DHT22;3252;52.540;13.290;2023-09-19T17:49:20;19.30;80.70
